sensor_id;sensor_type;location;lat;lon;timestamp;pressure;altitude;pressure_sealevel;temperature;humidity
21838;BME280;11081;45.946;6.140;2022-09-09T00:01:04;95133.38;;;19.11;71.60
21838;BME280;11081;45.946;6.140;2022-09-09T00:03:43;95139.31;;;18.98;71.45
21838;BME280;11081;45.946;6.140;2022-09-09T00:06:19;95138.03;;;18.85;72.65
21838;BME280;11081;45.946;6.140;2022-09-09T00:08:55;95145.75;;;18.71;73.95
21838;BME280;11081;45.946;6.140;2022-09-09T00:11:31;95147.44;;;18.42;75.91
21838;BME280;11081;45.946;6.140;2022-09-09T00:14:11;95155.41;;;18.26;77.28
21838;BME280;11081;45.946;6.140;2022-09-09T00:16:45;95150.13;;;18.37;77.35
21838;BME280;11081;45.946;6.140;2022-09-09T00:19:20;95148.53;;;18.36;79.17
21838;BME280;11081;45.946;6.140;2022-09-09T00:22:04;95159.63;;;18.27;80.78
21838;BME280;11081;45.946;6.140;2022-09-09T00:24:41;95163.59;;;18.30;80.16
21838;BME280;11081;45.946;6.140;2022-09-09T00:27:17;95165.44;;;18.35;81.98
21838;BME280;11081;45.946;6.140;2022-09-09T00:29:52;95159.66;;;18.33;82.91
21838;BME280;11081;45.946;6.140;2022-09-09T00:32:22;95167.53;;;18.43;83.19
21838;BME280;11081;45.946;6.140;2022-09-09T00:34:56;95171.19;;;18.57;84.22
21838;BME280;11081;45.946;6.140;2022-09-09T00:37:28;95176.47;;;18.67;84.36
21838;BME280;11081;45.946;6.140;2022-09-09T00:40:00;95168.78;;;18.76;85.19
21838;BME280;11081;45.946;6.140;2022-09-09T00:42:37;95169.56;;;18.76;86.05
21838;BME280;11081;45.946;6.140;2022-09-09T00:45:22;95174.56;;;18.73;87.00
21838;BME280;11081;45.946;6.140;2022-09-09T00:47:56;95161.63;;;18.71;86.80
21838;BME280;11081;45.946;6.140;2022-09-09T00:50:46;95178.03;;;18.68;89.43
21838;BME280;11081;45.946;6.140;2022-09-09T00:53:24;95174.34;;;18.64;89.12
21838;BME280;11081;45.946;6.140;2022-09-09T00:56:01;95154.28;;;18.63;88.55
21838;BME280;11081;45.946;6.140;2022-09-09T00:58:34;95147.41;;;18.57;88.20
21838;BME280;11081;45.946;6.140;2022-09-09T01:01:05;95153.78;;;18.46;88.40
21838;BME280;11081;45.946;6.140;2022-09-09T01:03:36;95145.84;;;18.46;89.40
21838;BME280;11081;45.946;6.140;2022-09-09T01:06:15;95142.19;;;18.37;89.26
21838;BME280;11081;45.946;6.140;2022-09-09T01:09:04;95135.28;;;18.41;90.01
21838;BME280;11081;45.946;6.140;2022-09-09T01:11:37;95136.09;;;18.41;88.52
21838;BME280;11081;45.946;6.140;2022-09-09T01:14:22;95126.31;;;18.42;89.05
21838;BME280;11081;45.946;6.140;2022-09-09T01:16:54;95126.31;;;18.42;88.69
21838;BME280;11081;45.946;6.140;2022-09-09T01:19:33;95112.88;;;18.33;89.33
21838;BME280;11081;45.946;6.140;2022-09-09T01:22:14;95114.19;;;18.36;89.66
21838;BME280;11081;45.946;6.140;2022-09-09T01:24:52;95116.81;;;18.36;88.98
21838;BME280;11081;45.946;6.140;2022-09-09T01:27:45;95123.13;;;18.40;88.68
21838;BME280;11081;45.946;6.140;2022-09-09T01:30:23;95126.31;;;18.37;88.51
21838;BME280;11081;45.946;6.140;2022-09-09T01:32:54;95119.47;;;18.31;88.32
21838;BME280;11081;45.946;6.140;2022-09-09T01:35:32;95112.09;;;18.22;89.01
21838;BME280;11081;45.946;6.140;2022-09-09T01:38:03;95103.09;;;18.23;88.95
21838;BME280;11081;45.946;6.140;2022-09-09T01:40:32;95108.38;;;18.34;88.93
21838;BME280;11081;45.946;6.140;2022-09-09T01:43:02;95104.13;;;18.38;88.84
21838;BME280;11081;45.946;6.140;2022-09-09T01:45:30;95098.88;;;18.33;89.22
21838;BME280;11081;45.946;6.140;2022-09-09T01:47:59;95099.91;;;18.32;88.74
21838;BME280;11081;45.946;6.140;2022-09-09T01:58:55;95098.91;;;18.17;89.61
21838;BME280;11081;45.946;6.140;2022-09-09T02:01:35;95101.03;;;18.15;90.33
21838;BME280;11081;45.946;6.140;2022-09-09T02:04:12;95104.16;;;18.22;89.39
21838;BME280;11081;45.946;6.140;2022-09-09T02:06:45;95107.09;;;18.21;89.52
21838;BME280;11081;45.946;6.140;2022-09-09T02:09:23;95102.06;;;18.19;90.37
21838;BME280;11081;45.946;6.140;2022-09-09T02:11:57;95103.66;;;18.15;91.37
21838;BME280;11081;45.946;6.140;2022-09-09T02:14:42;95107.34;;;18.19;91.70
21838;BME280;11081;45.946;6.140;2022-09-09T02:17:18;95098.38;;;18.20;91.81
21838;BME280;11081;45.946;6.140;2022-09-09T02:20:05;95094.16;;;18.14;92.21
21838;BME280;11081;45.946;6.140;2022-09-09T02:22:47;95097.34;;;18.06;92.74
21838;BME280;11081;45.946;6.140;2022-09-09T02:25:21;95095.22;;;18.08;92.70
21838;BME280;11081;45.946;6.140;2022-09-09T02:27:52;95101.81;;;18.11;92.96
21838;BME280;11081;45.946;6.140;2022-09-09T02:30:21;95093.09;;;18.20;92.94
21838;BME280;11081;45.946;6.140;2022-09-09T02:32:56;95089.91;;;18.18;92.84
21838;BME280;11081;45.946;6.140;2022-09-09T02:35:39;95095.50;;;18.12;93.01
21838;BME280;11081;45.946;6.140;2022-09-09T02:38:12;95096.28;;;18.12;92.74
21838;BME280;11081;45.946;6.140;2022-09-09T02:40:50;95099.97;;;18.11;92.87
21838;BME280;11081;45.946;6.140;2022-09-09T02:43:18;95093.88;;;18.11;92.82
21838;BME280;11081;45.946;6.140;2022-09-09T02:45:54;95098.13;;;18.17;92.88
21838;BME280;11081;45.946;6.140;2022-09-09T02:48:30;95090.47;;;18.15;92.61
21838;BME280;11081;45.946;6.140;2022-09-09T02:51:08;95087.81;;;18.10;92.73
21838;BME280;11081;45.946;6.140;2022-09-09T02:53:44;95091.50;;;18.09;93.10
21838;BME280;11081;45.946;6.140;2022-09-09T02:56:18;95097.31;;;18.11;92.71
21838;BME280;11081;45.946;6.140;2022-09-09T02:58:48;95101.03;;;18.15;92.38
21838;BME280;11081;45.946;6.140;2022-09-09T03:01:20;95098.91;;;18.17;91.72
21838;BME280;11081;45.946;6.140;2022-09-09T03:03:48;95094.97;;;18.15;91.46
21838;BME280;11081;45.946;6.140;2022-09-09T03:06:17;95097.06;;;18.13;91.15
21838;BME280;11081;45.946;6.140;2022-09-09T03:08:51;95098.91;;;18.17;90.81
21838;BME280;11081;45.946;6.140;2022-09-09T03:11:24;95098.94;;;18.02;91.72
21838;BME280;11081;45.946;6.140;2022-09-09T03:13:52;95102.13;;;17.99;92.21
21838;BME280;11081;45.946;6.140;2022-09-09T03:16:22;95095.75;;;18.05;91.73
21838;BME280;11081;45.946;6.140;2022-09-09T03:18:52;95102.09;;;18.09;91.67
21838;BME280;11081;45.946;6.140;2022-09-09T03:21:20;95101.03;;;18.15;91.66
21838;BME280;11081;45.946;6.140;2022-09-09T03:23:49;95093.63;;;18.17;91.86
21838;BME280;11081;45.946;6.140;2022-09-09T03:26:17;95103.66;;;18.20;91.81
21838;BME280;11081;45.946;6.140;2022-09-09T03:28:46;95102.06;;;18.19;91.13
21838;BME280;11081;45.946;6.140;2022-09-09T03:31:17;95090.97;;;18.22;90.92
21838;BME280;11081;45.946;6.140;2022-09-09T03:33:47;95104.16;;;18.22;91.49
21838;BME280;11081;45.946;6.140;2022-09-09T03:36:17;95096.25;;;18.22;91.17
21838;BME280;11081;45.946;6.140;2022-09-09T03:38:45;95097.31;;;18.16;91.76
21838;BME280;11081;45.946;6.140;2022-09-09T03:41:14;95089.91;;;18.18;92.01
21838;BME280;11081;45.946;6.140;2022-09-09T03:43:42;95087.78;;;18.20;91.77
21838;BME280;11081;45.946;6.140;2022-09-09T03:46:10;95086.22;;;18.19;92.18
21838;BME280;11081;45.946;6.140;2022-09-09T03:48:38;95089.91;;;18.18;92.48
21838;BME280;11081;45.946;6.140;2022-09-09T03:51:08;95085.19;;;18.15;92.42
21838;BME280;11081;45.946;6.140;2022-09-09T03:53:37;95095.75;;;18.10;92.51
21838;BME280;11081;45.946;6.140;2022-09-09T03:56:06;95096.78;;;18.09;93.03
21838;BME280;11081;45.946;6.140;2022-09-09T03:58:35;95091.00;;;18.12;92.56
21838;BME280;11081;45.946;6.140;2022-09-09T04:01:07;95086.78;;;18.06;92.61
21838;BME280;11081;45.946;6.140;2022-09-09T04:03:37;95090.00;;;17.93;93.14
21838;BME280;11081;45.946;6.140;2022-09-09T04:06:09;95086.81;;;17.96;92.50
21838;BME280;11081;45.946;6.140;2022-09-09T04:08:41;95085.78;;;17.92;92.77
21838;BME280;11081;45.946;6.140;2022-09-09T04:11:09;95084.19;;;17.91;92.62
21838;BME280;11081;45.946;6.140;2022-09-09T04:13:38;95085.25;;;17.85;91.75
21838;BME280;11081;45.946;6.140;2022-09-09T04:16:10;95088.94;;;17.84;91.61
21838;BME280;11081;45.946;6.140;2022-09-09T04:18:40;95086.31;;;17.79;92.27
21838;BME280;11081;45.946;6.140;2022-09-09T04:21:10;95082.09;;;17.83;92.50
21838;BME280;11081;45.946;6.140;2022-09-09T04:23:40;95088.94;;;17.84;92.16
21838;BME280;11081;45.946;6.140;2022-09-09T04:26:09;95082.84;;;17.88;92.13
21838;BME280;11081;45.946;6.140;2022-09-09T04:28:38;95089.72;;;17.84;92.30
21838;BME280;11081;45.946;6.140;2022-09-09T04:31:15;95082.09;;;17.83;92.91
21838;BME280;11081;45.946;6.140;2022-09-09T04:33:45;95077.84;;;17.87;92.75
21838;BME280;11081;45.946;6.140;2022-09-09T04:36:16;95082.34;;;17.86;92.44
21838;BME280;11081;45.946;6.140;2022-09-09T04:38:48;95077.84;;;17.82;92.75
21838;BME280;11081;45.946;6.140;2022-09-09T04:41:16;95082.63;;;17.80;92.85
21838;BME280;11081;45.946;6.140;2022-09-09T04:43:48;95076.81;;;17.62;93.31
21838;BME280;11081;45.946;6.140;2022-09-09T04:46:16;95079.47;;;17.52;94.14
21838;BME280;11081;45.946;6.140;2022-09-09T04:48:48;95084.19;;;17.60;92.88
21838;BME280;11081;45.946;6.140;2022-09-09T04:51:18;95081.03;;;17.68;92.05
21838;BME280;11081;45.946;6.140;2022-09-09T04:53:48;95080.50;;;17.56;92.44
21838;BME280;11081;45.946;6.140;2022-09-09T04:56:19;95090.03;;;17.52;92.98
21838;BME280;11081;45.946;6.140;2022-09-09T04:58:51;95092.91;;;17.56;92.68
21838;BME280;11081;45.946;6.140;2022-09-09T05:01:23;95089.75;;;17.54;91.54
21838;BME280;11081;45.946;6.140;2022-09-09T05:03:54;95092.66;;;17.52;90.95
21838;BME280;11081;45.946;6.140;2022-09-09T05:06:24;95095.84;;;17.54;90.87
21838;BME280;11081;45.946;6.140;2022-09-09T05:08:56;95094.25;;;17.58;90.77
21838;BME280;11081;45.946;6.140;2022-09-09T05:11:29;95089.75;;;17.54;91.11
21838;BME280;11081;45.946;6.140;2022-09-09T05:14:07;95095.84;;;17.54;91.29
21838;BME280;11081;45.946;6.140;2022-09-09T05:16:35;95088.97;;;17.53;91.60
21838;BME280;11081;45.946;6.140;2022-09-09T05:19:04;95094.25;;;17.58;91.69
21838;BME280;11081;45.946;6.140;2022-09-09T05:21:44;95096.88;;;17.58;91.88
21838;BME280;11081;45.946;6.140;2022-09-09T05:24:14;95092.66;;;17.57;91.83
21838;BME280;11081;45.946;6.140;2022-09-09T05:26:45;95100.03;;;17.60;91.70
21838;BME280;11081;45.946;6.140;2022-09-09T05:29:13;95107.97;;;17.55;92.09
21838;BME280;11081;45.946;6.140;2022-09-09T05:31:41;95106.38;;;17.54;92.66
21838;BME280;11081;45.946;6.140;2022-09-09T05:34:16;95108.75;;;17.56;92.95
21838;BME280;11081;45.946;6.140;2022-09-09T05:36:46;95104.78;;;17.58;93.00
21838;BME280;11081;45.946;6.140;2022-09-09T05:39:15;95105.31;;;17.60;93.40
21838;BME280;11081;45.946;6.140;2022-09-09T05:41:43;95112.19;;;17.61;93.05
21838;BME280;11081;45.946;6.140;2022-09-09T05:44:12;95112.22;;;17.72;92.77
21838;BME280;11081;45.946;6.140;2022-09-09T05:46:40;95109.03;;;17.75;92.96
21838;BME280;11081;45.946;6.140;2022-09-09T05:49:08;95111.16;;;17.78;92.53
21838;BME280;11081;45.946;6.140;2022-09-09T05:51:37;95122.75;;;17.77;92.71
21838;BME280;11081;45.946;6.140;2022-09-09T05:54:10;95119.88;;;17.73;93.13
21838;BME280;11081;45.946;6.140;2022-09-09T05:56:45;95123.81;;;17.76;93.21
21838;BME280;11081;45.946;6.140;2022-09-09T05:59:17;95123.81;;;17.81;92.82
21838;BME280;11081;45.946;6.140;2022-09-09T06:01:45;95115.34;;;17.84;92.50
21838;BME280;11081;45.946;6.140;2022-09-09T06:04:22;95124.59;;;17.81;92.29
21838;BME280;11081;45.946;6.140;2022-09-09T06:06:52;95134.38;;;17.91;91.09
21838;BME280;11081;45.946;6.140;2022-09-09T06:09:23;95135.69;;;17.93;91.34
21838;BME280;11081;45.946;6.140;2022-09-09T06:11:51;95139.63;;;17.86;91.95
21838;BME280;11081;45.946;6.140;2022-09-09T06:14:22;95126.44;;;17.91;92.09
21838;BME280;11081;45.946;6.140;2022-09-09T06:16:52;95129.63;;;17.93;92.01
21838;BME280;11081;45.946;6.140;2022-09-09T06:19:22;95136.97;;;18.01;91.68
21838;BME280;11081;45.946;6.140;2022-09-09T06:21:51;95141.72;;;18.04;91.52
21838;BME280;11081;45.946;6.140;2022-09-09T06:24:19;95143.34;;;17.95;91.98
21838;BME280;11081;45.946;6.140;2022-09-09T06:26:49;95146.75;;;18.01;91.60
21838;BME280;11081;45.946;6.140;2022-09-09T06:29:21;95140.19;;;17.93;91.70
21838;BME280;11081;45.946;6.140;2022-09-09T06:31:51;95143.59;;;17.98;92.44
21838;BME280;11081;45.946;6.140;2022-09-09T06:34:21;95147.00;;;18.04;92.56
21838;BME280;11081;45.946;6.140;2022-09-09T06:36:53;95148.34;;;18.12;91.76
21838;BME280;11081;45.946;6.140;2022-09-09T06:39:25;95150.72;;;18.13;91.60
21838;BME280;11081;45.946;6.140;2022-09-09T06:41:56;95160.44;;;18.23;91.66
21838;BME280;11081;45.946;6.140;2022-09-09T06:44:43;95151.16;;;18.31;91.55
21838;BME280;11081;45.946;6.140;2022-09-09T06:47:18;95152.22;;;18.29;91.28
21838;BME280;11081;45.946;6.140;2022-09-09T06:49:46;95160.69;;;18.26;91.36
21838;BME280;11081;45.946;6.140;2022-09-09T06:52:15;95164.38;;;18.36;91.28
21838;BME280;11081;45.946;6.140;2022-09-09T06:54:46;95159.09;;;18.36;90.64
21838;BME280;11081;45.946;6.140;2022-09-09T06:57:17;95165.69;;;18.43;90.35
21838;BME280;11081;45.946;6.140;2022-09-09T07:00:12;95167.00;;;18.41;89.03
21838;BME280;11081;45.946;6.140;2022-09-09T07:02:40;95165.94;;;18.42;90.03
21838;BME280;11081;45.946;6.140;2022-09-09T07:05:09;95167.50;;;18.48;89.81
21838;BME280;11081;45.946;6.140;2022-09-09T07:07:39;95168.59;;;18.42;89.22
21838;BME280;11081;45.946;6.140;2022-09-09T07:10:10;95173.34;;;18.45;89.49
21838;BME280;11081;45.946;6.140;2022-09-09T07:12:41;95167.22;;;18.49;88.47
21838;BME280;11081;45.946;6.140;2022-09-09T07:15:11;95182.06;;;18.40;88.87
21838;BME280;11081;45.946;6.140;2022-09-09T07:17:43;95183.13;;;18.44;88.66
21838;BME280;11081;45.946;6.140;2022-09-09T07:20:11;95176.56;;;18.26;89.99
21838;BME280;11081;45.946;6.140;2022-09-09T07:22:39;95191.38;;;18.02;91.42
21838;BME280;11081;45.946;6.140;2022-09-09T07:25:08;95186.66;;;17.99;91.89
21838;BME280;11081;45.946;6.140;2022-09-09T07:27:37;95184.50;;;18.11;91.37
21838;BME280;11081;45.946;6.140;2022-09-09T07:30:08;95186.63;;;18.09;91.82
21838;BME280;11081;45.946;6.140;2022-09-09T07:32:36;95185.06;;;17.83;93.62
21838;BME280;11081;45.946;6.140;2022-09-09T07:35:05;95189.53;;;17.87;94.11
21838;BME280;11081;45.946;6.140;2022-09-09T07:37:36;95188.75;;;17.87;93.60
21838;BME280;11081;45.946;6.140;2022-09-09T07:40:05;95187.16;;;17.86;94.07
21838;BME280;11081;45.946;6.140;2022-09-09T07:42:33;95192.19;;;17.92;93.65
21838;BME280;11081;45.946;6.140;2022-09-09T07:45:02;95191.94;;;17.99;93.53
21838;BME280;11081;45.946;6.140;2022-09-09T07:47:32;95196.16;;;17.95;93.63
21838;BME280;11081;45.946;6.140;2022-09-09T07:50:02;95191.41;;;17.92;92.42
21838;BME280;11081;45.946;6.140;2022-09-09T07:52:33;95200.91;;;17.88;92.59
21838;BME280;11081;45.946;6.140;2022-09-09T07:55:05;95199.56;;;17.90;92.23
21838;BME280;11081;45.946;6.140;2022-09-09T07:57:33;95203.81;;;17.76;92.71
21838;BME280;11081;45.946;6.140;2022-09-09T08:00:03;95204.63;;;17.77;92.94
21838;BME280;11081;45.946;6.140;2022-09-09T08:02:39;95209.88;;;18.02;91.60
21838;BME280;11081;45.946;6.140;2022-09-09T08:05:09;95204.59;;;18.17;91.20
21838;BME280;11081;45.946;6.140;2022-09-09T08:07:39;95206.69;;;18.20;90.25
21838;BME280;11081;45.946;6.140;2022-09-09T08:10:08;95217.25;;;18.36;89.28
21838;BME280;11081;45.946;6.140;2022-09-09T08:12:39;95206.63;;;18.46;89.30
21838;BME280;11081;45.946;6.140;2022-09-09T08:15:22;95214.59;;;18.41;87.12
21838;BME280;11081;45.946;6.140;2022-09-09T08:17:52;95221.97;;;18.44;85.22
21838;BME280;11081;45.946;6.140;2022-09-09T08:20:20;95217.72;;;18.53;84.60
21838;BME280;11081;45.946;6.140;2022-09-09T08:22:50;95220.41;;;18.38;83.71
21838;BME280;11081;45.946;6.140;2022-09-09T08:25:18;95219.38;;;18.34;83.01
21838;BME280;11081;45.946;6.140;2022-09-09T08:27:46;95223.56;;;18.29;82.05
21838;BME280;11081;45.946;6.140;2022-09-09T08:30:14;95228.31;;;18.43;81.18
21838;BME280;11081;45.946;6.140;2022-09-09T08:32:42;95223.50;;;18.70;79.02
21838;BME280;11081;45.946;6.140;2022-09-09T08:35:14;95226.69;;;18.62;78.31
21838;BME280;11081;45.946;6.140;2022-09-09T08:37:43;95235.69;;;18.71;78.96
21838;BME280;11081;45.946;6.140;2022-09-09T08:40:31;95233.56;;;18.73;78.43
21838;BME280;11081;45.946;6.140;2022-09-09T08:43:04;95231.97;;;18.72;78.76
21838;BME280;11081;45.946;6.140;2022-09-09T08:45:35;95230.84;;;18.88;78.62
21838;BME280;11081;45.946;6.140;2022-09-09T08:48:19;95236.66;;;18.96;77.24
21838;BME280;11081;45.946;6.140;2022-09-09T08:50:51;95238.31;;;18.76;76.80
21838;BME280;11081;45.946;6.140;2022-09-09T08:53:28;95236.69;;;18.85;76.04
21838;BME280;11081;45.946;6.140;2022-09-09T08:56:01;95234.56;;;18.87;74.82
21838;BME280;11081;45.946;6.140;2022-09-09T08:58:44;95240.88;;;19.02;74.76
21838;BME280;11081;45.946;6.140;2022-09-09T09:01:32;95240.25;;;19.15;73.57
21838;BME280;11081;45.946;6.140;2022-09-09T09:04:11;95235.13;;;19.39;74.03
21838;BME280;11081;45.946;6.140;2022-09-09T09:06:50;95233.72;;;19.52;73.59
21838;BME280;11081;45.946;6.140;2022-09-09T09:09:27;95232.66;;;19.53;72.74
21838;BME280;11081;45.946;6.140;2022-09-09T09:12:00;95242.00;;;19.40;69.42
21838;BME280;11081;45.946;6.140;2022-09-09T09:14:35;95233.97;;;19.06;69.28
21838;BME280;11081;45.946;6.140;2022-09-09T09:17:12;95237.19;;;18.93;70.19
21838;BME280;11081;45.946;6.140;2022-09-09T09:19:42;95230.72;;;19.24;69.87
21838;BME280;11081;45.946;6.140;2022-09-09T09:22:18;95221.91;;;19.34;68.84
21838;BME280;11081;45.946;6.140;2022-09-09T09:24:54;95229.19;;;19.08;67.14
21838;BME280;11081;45.946;6.140;2022-09-09T09:27:32;95232.31;;;19.20;65.48
21838;BME280;11081;45.946;6.140;2022-09-09T09:30:13;95226.25;;;19.19;65.23
21838;BME280;11081;45.946;6.140;2022-09-09T09:33:10;95232.34;;;19.10;65.27
21838;BME280;11081;45.946;6.140;2022-09-09T09:35:40;95236.63;;;19.06;65.94
21838;BME280;11081;45.946;6.140;2022-09-09T09:38:18;95237.47;;;18.96;61.91
21838;BME280;11081;45.946;6.140;2022-09-09T09:41:09;95236.16;;;18.88;64.01
21838;BME280;11081;45.946;6.140;2022-09-09T09:43:40;95235.66;;;18.81;63.61
21838;BME280;11081;45.946;6.140;2022-09-09T09:46:21;95247.31;;;18.75;64.06
21838;BME280;11081;45.946;6.140;2022-09-09T09:48:58;95246.97;;;18.92;62.88
21838;BME280;11081;45.946;6.140;2022-09-09T09:51:28;95249.88;;;19.01;62.54
21838;BME280;11081;45.946;6.140;2022-09-09T09:54:14;95248.16;;;19.25;60.82
21838;BME280;11081;45.946;6.140;2022-09-09T09:56:47;95238.09;;;19.27;61.76
21838;BME280;11081;45.946;6.140;2022-09-09T09:59:34;95244.97;;;19.28;59.46
21838;BME280;11081;45.946;6.140;2022-09-09T10:02:16;95233.84;;;19.31;62.13
21838;BME280;11081;45.946;6.140;2022-09-09T10:04:47;95246.09;;;19.12;61.69
21838;BME280;11081;45.946;6.140;2022-09-09T10:07:19;95230.47;;;19.15;61.08
21838;BME280;11081;45.946;6.140;2022-09-09T10:09:53;95234.97;;;19.15;60.00
21838;BME280;11081;45.946;6.140;2022-09-09T10:12:29;95232.25;;;19.30;60.68
21838;BME280;11081;45.946;6.140;2022-09-09T10:15:02;95226.84;;;19.50;60.46
21838;BME280;11081;45.946;6.140;2022-09-09T10:17:40;95235.84;;;19.49;59.34
21838;BME280;11081;45.946;6.140;2022-09-09T10:20:20;95217.84;;;19.52;57.78
21838;BME280;11081;45.946;6.140;2022-09-09T10:23:05;95228.41;;;19.62;57.73
21838;BME280;11081;45.946;6.140;2022-09-09T10:25:50;95223.13;;;19.62;56.08
21838;BME280;11081;45.946;6.140;2022-09-09T10:28:48;95231.06;;;19.57;57.90
21838;BME280;11081;45.946;6.140;2022-09-09T10:31:26;95219.34;;;19.68;56.87
21838;BME280;11081;45.946;6.140;2022-09-09T10:34:02;95229.84;;;19.39;57.73
21838;BME280;11081;45.946;6.140;2022-09-09T10:36:38;95222.19;;;19.37;60.43
21838;BME280;11081;45.946;6.140;2022-09-09T10:39:18;95224.78;;;19.42;58.70
21838;BME280;11081;45.946;6.140;2022-09-09T10:42:00;95226.31;;;19.54;59.47
21838;BME280;11081;45.946;6.140;2022-09-09T10:45:05;95227.38;;;19.58;56.59
21838;BME280;11081;45.946;6.140;2022-09-09T10:47:46;95235.56;;;19.56;57.97
21838;BME280;11081;45.946;6.140;2022-09-09T10:50:42;95225.72;;;19.67;55.92
21838;BME280;11081;45.946;6.140;2022-09-09T10:53:36;95234.78;;;19.56;57.47
21838;BME280;11081;45.946;6.140;2022-09-09T10:56:09;95226.69;;;19.81;57.17
21838;BME280;11081;45.946;6.140;2022-09-09T10:58:43;95232.91;;;19.95;56.61
21838;BME280;11081;45.946;6.140;2022-09-09T11:01:18;95224.53;;;19.83;57.05
21838;BME280;11081;45.946;6.140;2022-09-09T11:03:53;95230.78;;;19.97;56.53
21838;BME280;11081;45.946;6.140;2022-09-09T11:06:27;95215.16;;;19.96;56.02
21838;BME280;11081;45.946;6.140;2022-09-09T11:08:58;95220.19;;;19.97;56.45
21838;BME280;11081;45.946;6.140;2022-09-09T11:11:32;95221.78;;;20.27;58.27
21838;BME280;11081;45.946;6.140;2022-09-09T11:14:09;95218.34;;;20.27;57.79
21838;BME280;11081;45.946;6.140;2022-09-09T11:16:42;95216.53;;;20.22;57.48
21838;BME280;11081;45.946;6.140;2022-09-09T11:19:20;95213.44;;;20.39;56.39
21838;BME280;11081;45.946;6.140;2022-09-09T11:21:52;95218.84;;;20.58;57.80
21838;BME280;11081;45.946;6.140;2022-09-09T11:24:24;95218.19;;;20.47;56.28
21838;BME280;11081;45.946;6.140;2022-09-09T11:26:57;95219.81;;;20.43;55.96
21838;BME280;11081;45.946;6.140;2022-09-09T11:33:00;95218.97;;;20.72;56.27
21838;BME280;11081;45.946;6.140;2022-09-09T11:35:44;95211.00;;;20.72;55.59
21838;BME280;11081;45.946;6.140;2022-09-09T11:38:18;95211.28;;;20.94;55.31
21838;BME280;11081;45.946;6.140;2022-09-09T11:40:54;95209.13;;;20.96;54.75
21838;BME280;11081;45.946;6.140;2022-09-09T11:43:28;95208.63;;;20.94;54.29
21838;BME280;11081;45.946;6.140;2022-09-09T11:45:59;95215.69;;;20.80;55.25
21838;BME280;11081;45.946;6.140;2022-09-09T11:48:32;95217.59;;;20.98;54.73
21838;BME280;11081;45.946;6.140;2022-09-09T11:51:06;95219.41;;;20.79;51.63
21838;BME280;11081;45.946;6.140;2022-09-09T11:53:51;95217.03;;;20.77;53.20
21838;BME280;11081;45.946;6.140;2022-09-09T11:56:28;95218.16;;;20.95;54.36
21838;BME280;11081;45.946;6.140;2022-09-09T11:59:00;95218.50;;;21.12;51.27
21838;BME280;11081;45.946;6.140;2022-09-09T12:01:38;95229.00;;;20.98;50.81
21838;BME280;11081;45.946;6.140;2022-09-09T12:04:28;95222.91;;;20.98;52.02
21838;BME280;11081;45.946;6.140;2022-09-09T12:07:00;95216.16;;;20.87;53.08
21838;BME280;11081;45.946;6.140;2022-09-09T12:09:43;95216.47;;;21.04;54.10
21838;BME280;11081;45.946;6.140;2022-09-09T12:12:23;95227.16;;;21.42;53.92
21838;BME280;11081;45.946;6.140;2022-09-09T12:14:59;95216.31;;;21.57;52.53
21838;BME280;11081;45.946;6.140;2022-09-09T12:17:29;95223.00;;;21.73;51.64
21838;BME280;11081;45.946;6.140;2022-09-09T12:20:18;95229.97;;;21.69;47.51
21838;BME280;11081;45.946;6.140;2022-09-09T12:23:13;95221.50;;;21.48;49.94
21838;BME280;11081;45.946;6.140;2022-09-09T12:25:53;95216.97;;;21.49;50.36
21838;BME280;11081;45.946;6.140;2022-09-09T12:28:27;95212.38;;;21.36;49.83
21838;BME280;11081;45.946;6.140;2022-09-09T12:31:06;95212.38;;;21.36;50.50
21838;BME280;11081;45.946;6.140;2022-09-09T12:33:38;95210.78;;;21.35;49.56
21838;BME280;11081;45.946;6.140;2022-09-09T12:36:13;95208.06;;;21.40;50.33
21838;BME280;11081;45.946;6.140;2022-09-09T12:38:43;95200.97;;;21.35;50.14
21838;BME280;11081;45.946;6.140;2022-09-09T12:41:19;95202.19;;;21.19;51.54
21838;BME280;11081;45.946;6.140;2022-09-09T12:43:48;95209.31;;;21.23;50.60
21838;BME280;11081;45.946;6.140;2022-09-09T12:46:24;95210.72;;;20.97;49.96
21838;BME280;11081;45.946;6.140;2022-09-09T12:48:56;95212.34;;;20.93;51.03
21838;BME280;11081;45.946;6.140;2022-09-09T12:51:27;95207.94;;;21.07;51.56
21838;BME280;11081;45.946;6.140;2022-09-09T12:53:56;95202.50;;;21.17;51.97
21838;BME280;11081;45.946;6.140;2022-09-09T12:56:27;95208.53;;;21.04;49.90
21838;BME280;11081;45.946;6.140;2022-09-09T12:58:58;95202.69;;;21.02;52.05
21838;BME280;11081;45.946;6.140;2022-09-09T13:01:29;95193.53;;;21.13;51.27
21838;BME280;11081;45.946;6.140;2022-09-09T13:03:57;95197.47;;;21.16;50.90
21838;BME280;11081;45.946;6.140;2022-09-09T13:06:28;95194.53;;;21.17;49.77
21838;BME280;11081;45.946;6.140;2022-09-09T13:08:58;95197.44;;;21.40;48.16
21838;BME280;11081;45.946;6.140;2022-09-09T13:11:29;95191.41;;;21.53;47.84
21838;BME280;11081;45.946;6.140;2022-09-09T13:13:59;95180.38;;;21.46;47.91
21838;BME280;11081;45.946;6.140;2022-09-09T13:16:29;95186.38;;;21.70;48.13
21838;BME280;11081;45.946;6.140;2022-09-09T13:19:01;95184.81;;;21.83;48.23
21838;BME280;11081;45.946;6.140;2022-09-09T13:21:37;95190.13;;;21.69;47.76
21838;BME280;11081;45.946;6.140;2022-09-09T13:24:19;95184.47;;;21.89;48.69
21838;BME280;11081;45.946;6.140;2022-09-09T13:26:54;95179.84;;;22.14;50.07
21838;BME280;11081;45.946;6.140;2022-09-09T13:29:23;95182.22;;;22.29;50.17
21838;BME280;11081;45.946;6.140;2022-09-09T13:31:53;95171.81;;;22.60;47.87
21838;BME280;11081;45.946;6.140;2022-09-09T13:34:29;95179.69;;;22.51;46.35
21838;BME280;11081;45.946;6.140;2022-09-09T13:37:02;95168.84;;;22.34;47.70
21838;BME280;11081;45.946;6.140;2022-09-09T13:39:33;95183.81;;;22.30;49.34
21838;BME280;11081;45.946;6.140;2022-09-09T13:42:04;95183.44;;;22.78;47.45
21838;BME280;11081;45.946;6.140;2022-09-09T13:44:36;95179.50;;;22.89;45.54
21838;BME280;11081;45.946;6.140;2022-09-09T13:47:17;95176.34;;;22.87;45.18